createdAt,value
2018-09-09T00:00:57.822Z,32.79
2018-09-09T00:01:57.824Z,32.79
2018-09-09T00:02:57.828Z,32.70
2018-09-09T00:03:57.833Z,32.89
2018-09-09T00:04:57.837Z,32.99
2018-09-09T00:05:57.845Z,32.60
2018-09-09T00:06:57.849Z,32.89
2018-09-09T00:07:57.852Z,32.60
2018-09-09T00:08:57.858Z,32.89
2018-09-09T00:09:57.861Z,32.60
2018-09-09T00:10:57.872Z,32.79
2018-09-09T00:11:57.873Z,32.99
2018-09-09T00:12:57.877Z,32.79
2018-09-09T00:13:57.884Z,32.79
2018-09-09T00:14:57.890Z,32.70
2018-09-09T00:15:57.892Z,32.60
2018-09-09T00:16:57.896Z,32.89
2018-09-09T00:17:57.902Z,32.79
2018-09-09T00:18:57.906Z,32.60
2018-09-09T00:19:57.911Z,32.79
2018-09-09T00:20:57.916Z,32.79
2018-09-09T00:21:57.921Z,32.89
2018-09-09T00:22:57.928Z,32.99
2018-09-09T00:23:57.931Z,32.89
2018-09-09T00:24:57.936Z,32.89
2018-09-09T00:25:57.948Z,32.79
2018-09-09T00:26:57.946Z,32.89
2018-09-09T00:27:57.957Z,32.89
2018-09-09T00:28:57.964Z,32.70
2018-09-09T00:29:57.962Z,32.89
2018-09-09T00:30:57.968Z,32.99
2018-09-09T00:31:57.972Z,32.99
2018-09-09T00:32:57.975Z,32.89
2018-09-09T00:33:57.982Z,32.89
2018-09-09T00:34:57.985Z,32.99
2018-09-09T00:35:57.990Z,32.89
2018-09-09T00:36:57.994Z,32.99
2018-09-09T00:37:58.000Z,33.09
2018-09-09T00:38:58.010Z,33.09
2018-09-09T00:39:58.010Z,33.18
2018-09-09T00:40:58.015Z,32.99
2018-09-09T00:41:58.020Z,32.99
2018-09-09T00:42:58.025Z,33.09
2018-09-09T00:43:58.031Z,32.99
2018-09-09T00:44:58.035Z,33.09
2018-09-09T00:45:58.040Z,32.99
2018-09-09T00:46:58.045Z,33.18
2018-09-09T00:47:58.050Z,33.38
2018-09-09T00:48:58.054Z,33.18
2018-09-09T00:49:58.059Z,33.18
2018-09-09T00:50:58.064Z,33.09
2018-09-09T00:51:58.069Z,33.18
2018-09-09T00:52:58.079Z,33.18
2018-09-09T00:53:58.078Z,33.18
2018-09-09T00:54:58.083Z,33.18
2018-09-09T00:55:58.089Z,33.18
2018-09-09T00:56:58.093Z,33.18
2018-09-09T00:57:58.106Z,33.09
2018-09-09T00:58:58.103Z,33.09
2018-09-09T00:59:58.109Z,33.18
2018-09-09T01:00:58.114Z,32.99
2018-09-09T01:01:58.119Z,32.99
2018-09-09T01:02:58.123Z,33.18
2018-09-09T01:03:58.170Z,33.18
2018-09-09T01:04:58.170Z,33.09
2018-09-09T01:05:58.172Z,33.09
2018-09-09T01:06:58.184Z,32.89
2018-09-09T01:07:58.173Z,32.70
2018-09-09T01:08:58.170Z,33.18
2018-09-09T01:09:58.173Z,33.57
2018-09-09T01:10:58.172Z,33.28
2018-09-09T01:11:58.175Z,33.18
2018-09-09T01:12:58.175Z,33.09
2018-09-09T01:13:58.178Z,32.89
2018-09-09T01:14:58.182Z,33.09
2018-09-09T01:15:58.188Z,33.18
2018-09-09T01:16:58.191Z,33.28
2018-09-09T01:17:58.198Z,33.28
2018-09-09T01:18:58.243Z,33.18
2018-09-09T01:19:58.244Z,32.79
2018-09-09T01:20:58.246Z,33.18
2018-09-09T01:21:58.242Z,33.57
2018-09-09T01:22:58.243Z,33.09
2018-09-09T01:23:58.245Z,33.09
2018-09-09T01:24:58.246Z,32.99
2018-09-09T01:25:58.247Z,33.09
2018-09-09T01:26:58.252Z,32.99
2018-09-09T01:27:58.250Z,33.09
2018-09-09T01:28:58.250Z,33.18
2018-09-09T01:29:58.255Z,33.18
2018-09-09T01:30:58.260Z,32.89
2018-09-09T01:31:58.266Z,33.18
2018-09-09T01:32:58.271Z,33.09
2018-09-09T01:33:58.275Z,33.18
2018-09-09T01:34:58.280Z,33.18
2018-09-09T01:35:58.286Z,33.09
2018-09-09T01:36:58.290Z,33.28
2018-09-09T01:37:58.295Z,33.18
2018-09-09T01:38:58.300Z,33.18
2018-09-09T01:39:58.306Z,33.18
2018-09-09T01:40:58.310Z,33.09
2018-09-09T01:41:58.315Z,33.18
2018-09-09T01:42:58.320Z,33.09
2018-09-09T01:43:58.325Z,33.09
2018-09-09T01:44:58.330Z,33.18
2018-09-09T01:45:58.336Z,33.09
2018-09-09T01:46:58.339Z,33.09
2018-09-09T01:47:58.345Z,33.28
2018-09-09T01:48:58.349Z,33.28
2018-09-09T01:49:58.355Z,33.28
2018-09-09T01:50:58.360Z,33.09
2018-09-09T01:51:58.366Z,33.18
2018-09-09T01:52:58.369Z,33.28
2018-09-09T01:53:58.374Z,33.09
2018-09-09T01:54:58.382Z,33.18
2018-09-09T01:55:58.385Z,33.28
2018-09-09T01:56:58.389Z,33.28
2018-09-09T01:57:58.394Z,33.09
2018-09-09T01:58:58.400Z,33.18
2018-09-09T01:59:58.404Z,33.28
2018-09-09T02:00:58.410Z,33.28
2018-09-09T02:01:58.414Z,33.28
2018-09-09T02:02:58.418Z,33.28
2018-09-09T02:03:58.430Z,33.18
2018-09-09T02:04:58.428Z,33.18
2018-09-09T02:05:58.433Z,33.09
2018-09-09T02:06:58.438Z,33.28
2018-09-09T02:07:58.443Z,33.18
2018-09-09T02:08:58.448Z,33.09
2018-09-09T02:09:58.456Z,33.47
2018-09-09T02:10:58.458Z,33.28
2018-09-09T02:11:58.463Z,32.79
2018-09-09T02:12:58.467Z,32.89
2018-09-09T02:13:58.473Z,33.18
2018-09-09T02:14:58.526Z,33.28
2018-09-09T02:15:58.483Z,33.18
2018-09-09T02:16:58.490Z,33.18
2018-09-09T02:17:58.493Z,32.99
2018-09-09T02:18:58.499Z,33.28
2018-09-09T02:19:58.511Z,33.28
2018-09-09T02:20:58.507Z,32.99
2018-09-09T02:21:58.514Z,33.09
2018-09-09T02:22:58.522Z,33.09
2018-09-09T02:23:58.522Z,33.28
2018-09-09T02:24:58.527Z,33.18
2018-09-09T02:25:58.615Z,33.28
2018-09-09T02:26:58.537Z,33.18
2018-09-09T02:27:58.542Z,33.28
2018-09-09T02:28:58.546Z,33.09
2018-09-09T02:29:58.551Z,33.09
2018-09-09T02:30:58.556Z,33.18
2018-09-09T02:31:58.563Z,33.18
2018-09-09T02:32:58.565Z,33.18
2018-09-09T02:33:58.572Z,33.18
2018-09-09T02:34:58.582Z,33.09
2018-09-09T02:35:58.582Z,33.18
2018-09-09T02:36:58.586Z,33.18
2018-09-09T02:37:58.602Z,33.18
2018-09-09T02:38:58.595Z,33.47
2018-09-09T02:39:58.601Z,33.36
2018-09-09T02:40:58.606Z,33.26
2018-09-09T02:41:58.610Z,33.38
2018-09-09T02:42:58.615Z,33.56
2018-09-09T02:43:58.622Z,33.57
2018-09-09T02:44:58.626Z,33.46
2018-09-09T02:45:58.635Z,33.57
2018-09-09T02:46:58.635Z,33.46
2018-09-09T02:47:58.644Z,33.57
2018-09-09T02:48:58.645Z,33.56
2018-09-09T02:49:58.655Z,33.46
2018-09-09T02:50:58.656Z,33.56
2018-09-09T02:51:58.659Z,33.65
2018-09-09T02:52:58.663Z,33.75
2018-09-09T02:53:58.668Z,33.57
2018-09-09T02:54:58.673Z,33.94
2018-09-09T02:55:58.678Z,33.56
2018-09-09T02:56:58.682Z,34.04
2018-09-09T02:57:58.687Z,33.65
2018-09-09T02:58:58.692Z,33.75
2018-09-09T02:59:58.703Z,33.75
2018-09-09T03:00:58.705Z,33.75
2018-09-09T03:01:58.706Z,33.75
2018-09-09T03:02:58.711Z,33.65
2018-09-09T03:03:58.717Z,33.94
2018-09-09T03:04:58.723Z,33.84
2018-09-09T03:05:58.723Z,33.84
2018-09-09T03:06:58.729Z,33.84
2018-09-09T03:07:58.735Z,33.94
2018-09-09T03:08:58.739Z,34.33
2018-09-09T03:09:58.744Z,33.94
2018-09-09T03:10:58.749Z,33.84
2018-09-09T03:11:58.753Z,34.43
2018-09-09T03:12:58.757Z,33.94
2018-09-09T03:13:58.762Z,33.75
2018-09-09T03:14:58.773Z,33.75
2018-09-09T03:15:58.780Z,33.84
2018-09-09T03:16:58.777Z,33.75
2018-09-09T03:17:58.783Z,33.94
2018-09-09T03:18:58.786Z,33.75
2018-09-09T03:19:58.791Z,33.75
2018-09-09T03:20:58.795Z,33.75
2018-09-09T03:21:58.831Z,33.75
2018-09-09T03:22:58.805Z,33.84
2018-09-09T03:23:58.809Z,33.94
2018-09-09T03:24:58.815Z,33.84
2018-09-09T03:25:58.819Z,33.75
2018-09-09T03:26:58.824Z,33.65
2018-09-09T03:27:58.830Z,33.65
2018-09-09T03:28:58.832Z,33.84
2018-09-09T03:29:58.837Z,33.75
2018-09-09T03:30:58.843Z,33.65
2018-09-09T03:31:58.850Z,33.65
2018-09-09T03:32:58.852Z,33.84
2018-09-09T03:33:58.857Z,33.84
2018-09-09T03:34:58.864Z,33.84
2018-09-09T03:35:58.867Z,33.75
2018-09-09T03:36:58.871Z,33.75
2018-09-09T03:37:58.875Z,33.75
2018-09-09T03:38:58.881Z,33.84
2018-09-09T03:39:58.886Z,33.94
2018-09-09T03:40:58.892Z,33.84
2018-09-09T03:41:58.894Z,34.04
2018-09-09T03:42:58.901Z,33.94
2018-09-09T03:43:58.904Z,33.84
2018-09-09T03:44:58.911Z,34.33
2018-09-09T03:45:58.915Z,34.43
2018-09-09T03:46:58.919Z,34.04
2018-09-09T03:47:58.923Z,34.33
2018-09-09T03:48:58.931Z,34.23
2018-09-09T03:49:58.931Z,34.33
2018-09-09T03:50:58.937Z,34.23
2018-09-09T03:51:58.942Z,34.04
2018-09-09T03:52:58.945Z,34.23
2018-09-09T03:53:58.953Z,34.14
2018-09-09T03:54:58.956Z,34.23
2018-09-09T03:55:58.961Z,34.23
2018-09-09T03:56:58.964Z,34.33
2018-09-09T03:57:58.969Z,34.14
2018-09-09T03:58:58.974Z,34.14
2018-09-09T03:59:58.981Z,34.23
2018-09-09T04:00:58.985Z,34.14
2018-09-09T04:01:58.987Z,34.14
2018-09-09T04:02:58.992Z,34.14
2018-09-09T04:03:59.004Z,34.04
2018-09-09T04:04:59.002Z,34.04
2018-09-09T04:05:59.014Z,33.84
2018-09-09T04:06:59.011Z,33.84
2018-09-09T04:07:59.016Z,34.04
2018-09-09T04:08:59.025Z,34.04
2018-09-09T04:09:59.044Z,34.04
2018-09-09T04:10:59.031Z,34.14
2018-09-09T04:11:59.038Z,34.23
2018-09-09T04:12:59.040Z,34.43
2018-09-09T04:13:59.044Z,34.43
2018-09-09T04:14:59.048Z,34.53
2018-09-09T04:15:59.057Z,34.91
2018-09-09T04:16:59.058Z,34.43
2018-09-09T04:17:59.062Z,34.91
2018-09-09T04:18:59.066Z,34.81
2018-09-09T04:19:59.076Z,34.91
2018-09-09T04:20:59.080Z,34.62
2018-09-09T04:21:59.081Z,34.81
2018-09-09T04:22:59.087Z,34.72
2018-09-09T04:23:59.090Z,34.81
2018-09-09T04:24:59.093Z,34.81
2018-09-09T04:25:59.102Z,34.53
2018-09-09T04:26:59.126Z,34.62
2018-09-09T04:27:59.113Z,34.72
2018-09-09T04:28:59.124Z,34.72
2018-09-09T04:29:59.125Z,34.62
2018-09-09T04:30:59.179Z,34.72
2018-09-09T04:31:59.126Z,34.72
2018-09-09T04:32:59.131Z,34.72
2018-09-09T04:33:59.136Z,34.62
2018-09-09T04:34:59.140Z,34.80
2018-09-09T04:35:59.145Z,34.72
2018-09-09T04:36:59.150Z,34.70
2018-09-09T04:37:59.158Z,34.72
2018-09-09T04:38:59.160Z,34.61
2018-09-09T04:39:59.165Z,34.72
2018-09-09T04:40:59.169Z,34.72
2018-09-09T04:41:59.172Z,34.70
2018-09-09T04:42:59.178Z,34.72
2018-09-09T04:43:59.185Z,34.80
2018-09-09T04:44:59.193Z,34.72
2018-09-09T04:45:59.194Z,35.01
2018-09-09T04:46:59.196Z,35.01
2018-09-09T04:47:59.202Z,35.01
2018-09-09T04:48:59.206Z,34.72
2018-09-09T04:49:59.211Z,35.11
2018-09-09T04:50:59.219Z,34.91
2018-09-09T04:51:59.220Z,34.91
2018-09-09T04:52:59.224Z,34.81
2018-09-09T04:53:59.230Z,34.53
2018-09-09T04:54:59.234Z,35.01
2018-09-09T04:55:59.239Z,35.01
2018-09-09T04:56:59.242Z,34.81
2018-09-09T04:57:59.247Z,34.81
2018-09-09T04:58:59.251Z,34.91
2018-09-09T04:59:59.264Z,34.89
2018-09-09T05:00:59.267Z,34.91
2018-09-09T05:01:59.265Z,34.91
2018-09-09T05:02:59.267Z,34.81
2018-09-09T05:03:59.275Z,34.81
2018-09-09T05:04:59.292Z,34.91
2018-09-09T05:05:59.289Z,34.91
2018-09-09T05:06:59.289Z,34.81
2018-09-09T05:07:59.296Z,34.89
2018-09-09T05:08:59.297Z,34.72
2018-09-09T05:09:59.302Z,34.81
2018-09-09T05:10:59.307Z,34.89
2018-09-09T05:11:59.312Z,34.81
2018-09-09T05:12:59.317Z,34.81
2018-09-09T05:13:59.322Z,34.62
2018-09-09T05:14:59.328Z,34.81
2018-09-09T05:15:59.330Z,34.81
2018-09-09T05:16:59.334Z,34.91
2018-09-09T05:17:59.346Z,34.89
2018-09-09T05:18:59.344Z,34.70
2018-09-09T05:19:59.351Z,34.91
2018-09-09T05:20:59.353Z,34.81
2018-09-09T05:21:59.357Z,34.72
2018-09-09T05:22:59.363Z,34.72
2018-09-09T05:23:59.367Z,34.99
2018-09-09T05:24:59.371Z,34.70
2018-09-09T05:25:59.376Z,34.72
2018-09-09T05:26:59.380Z,35.01
2018-09-09T05:27:59.385Z,34.91
2018-09-09T05:28:59.389Z,34.89
2018-09-09T05:29:59.394Z,34.81
2018-09-09T05:30:59.401Z,34.91
2018-09-09T05:31:59.404Z,34.91
2018-09-09T05:32:59.408Z,34.91
2018-09-09T05:33:59.412Z,34.81
2018-09-09T05:34:59.416Z,34.91
2018-09-09T05:35:59.426Z,34.91
2018-09-09T05:36:59.427Z,34.91
2018-09-09T05:37:59.430Z,34.91
2018-09-09T05:38:59.436Z,34.80
2018-09-09T05:39:59.440Z,35.01
2018-09-09T05:40:59.444Z,34.81
2018-09-09T05:41:59.449Z,34.81
2018-09-09T05:42:59.454Z,34.81
2018-09-09T05:43:59.459Z,34.70
2018-09-09T05:44:59.464Z,34.91
2018-09-09T05:45:59.468Z,35.11
2018-09-09T05:46:59.472Z,34.80
2018-09-09T05:47:59.477Z,35.11
2018-09-09T05:48:59.481Z,34.91
2018-09-09T05:49:59.486Z,34.91
2018-09-09T05:50:59.495Z,34.80
2018-09-09T05:51:59.498Z,34.91
2018-09-09T05:52:59.499Z,35.11
2018-09-09T05:53:59.599Z,35.11
2018-09-09T05:54:59.510Z,34.99
2018-09-09T05:55:59.514Z,35.09
2018-09-09T05:56:59.518Z,34.99
2018-09-09T05:57:59.523Z,35.11
2018-09-09T05:58:59.528Z,35.11
2018-09-09T05:59:59.532Z,35.11
2018-09-09T06:00:59.536Z,35.19
2018-09-09T06:01:59.541Z,34.91
2018-09-09T06:02:59.553Z,34.99
2018-09-09T06:03:59.552Z,34.91
2018-09-09T06:04:59.555Z,34.70
2018-09-09T06:05:59.560Z,34.80
2018-09-09T06:06:59.564Z,35.19
2018-09-09T06:07:59.570Z,35.09
2018-09-09T06:08:59.573Z,34.91
2018-09-09T06:09:59.578Z,34.99
2018-09-09T06:10:59.583Z,35.21
2018-09-09T06:11:59.588Z,35.21
2018-09-09T06:12:59.592Z,35.19
2018-09-09T06:13:59.595Z,35.19
2018-09-09T06:14:59.620Z,35.11
2018-09-09T06:15:59.605Z,35.09
2018-09-09T06:16:59.610Z,35.28
2018-09-09T06:17:59.614Z,35.48
2018-09-09T06:18:59.623Z,35.09
2018-09-09T06:19:59.625Z,35.01
2018-09-09T06:20:59.627Z,35.49
2018-09-09T06:21:59.632Z,35.49
2018-09-09T06:22:59.637Z,35.48
2018-09-09T06:23:59.642Z,35.40
2018-09-09T06:24:59.646Z,35.11
2018-09-09T06:25:59.651Z,35.49
2018-09-09T06:26:59.655Z,35.40
2018-09-09T06:27:59.664Z,35.48
2018-09-09T06:28:59.664Z,35.59
2018-09-09T06:29:59.670Z,35.49
2018-09-09T06:30:59.675Z,35.30
2018-09-09T06:31:59.679Z,35.21
2018-09-09T06:32:59.685Z,35.49
2018-09-09T06:33:59.724Z,35.49
2018-09-09T06:34:59.693Z,35.49
2018-09-09T06:35:59.701Z,35.59
2018-09-09T06:36:59.702Z,35.38
2018-09-09T06:37:59.707Z,35.28
2018-09-09T06:38:59.777Z,36.06
2018-09-09T06:39:59.715Z,35.98
2018-09-09T06:40:59.723Z,35.86
2018-09-09T06:41:59.724Z,35.21
2018-09-09T06:42:59.728Z,35.67
2018-09-09T06:43:59.735Z,35.59
2018-09-09T06:44:59.736Z,35.57
2018-09-09T06:45:59.742Z,35.69
2018-09-09T06:46:59.747Z,35.88
2018-09-09T06:47:59.751Z,35.78
2018-09-09T06:48:59.756Z,35.67
2018-09-09T06:49:59.762Z,35.57
2018-09-09T06:50:59.768Z,35.77
2018-09-09T06:51:59.773Z,35.77
2018-09-09T06:52:59.778Z,35.96
2018-09-09T06:53:59.778Z,35.77
2018-09-09T06:54:59.788Z,35.86
2018-09-09T06:55:59.788Z,35.57
2018-09-09T06:56:59.792Z,35.77
2018-09-09T06:57:59.798Z,35.77
2018-09-09T06:58:59.803Z,35.77
2018-09-09T06:59:59.811Z,35.67
2018-09-09T07:00:59.820Z,35.96
2018-09-09T07:01:59.816Z,35.77
2018-09-09T07:02:59.820Z,35.67
2018-09-09T07:03:59.825Z,35.77
2018-09-09T07:04:59.829Z,35.96
2018-09-09T07:05:59.833Z,35.57
2018-09-09T07:06:59.836Z,35.77
2018-09-09T07:07:59.845Z,35.77
2018-09-09T07:08:59.847Z,35.96
2018-09-09T07:09:59.851Z,35.67
2018-09-09T07:11:00.165Z,35.77
2018-09-09T07:12:00.027Z,35.77
2018-09-09T07:12:59.867Z,35.77
2018-09-09T07:13:59.871Z,35.77
2018-09-09T07:14:59.910Z,35.57
2018-09-09T07:15:59.880Z,35.86
2018-09-09T07:16:59.945Z,35.86
2018-09-09T07:17:59.889Z,35.77
2018-09-09T07:18:59.904Z,35.67
2018-09-09T07:19:59.897Z,35.77
2018-09-09T07:20:59.901Z,36.16
2018-09-09T07:21:59.913Z,36.25
2018-09-09T07:22:59.913Z,36.16
2018-09-09T07:23:59.916Z,36.06
2018-09-09T07:24:59.920Z,35.96
2018-09-09T07:25:59.924Z,36.08
2018-09-09T07:26:59.930Z,36.06
2018-09-09T07:27:59.935Z,36.25
2018-09-09T07:28:59.939Z,36.25
2018-09-09T07:29:59.945Z,36.16
2018-09-09T07:31:00.010Z,36.06
2018-09-09T07:31:59.952Z,36.16
2018-09-09T07:32:59.956Z,36.25
2018-09-09T07:33:59.968Z,35.98
2018-09-09T07:34:59.971Z,36.08
2018-09-09T07:35:59.976Z,36.66
2018-09-09T07:36:59.975Z,36.54
2018-09-09T07:37:59.979Z,36.56
2018-09-09T07:38:59.989Z,36.66
2018-09-09T07:39:59.989Z,36.16
2018-09-09T07:40:59.992Z,36.54
2018-09-09T07:41:59.998Z,36.44
2018-09-09T07:43:00.005Z,36.56
2018-09-09T07:44:00.010Z,36.36
2018-09-09T07:45:00.019Z,36.36
2018-09-09T07:46:00.016Z,36.44
2018-09-09T07:47:00.023Z,36.44
2018-09-09T07:48:00.045Z,36.18
2018-09-09T07:49:00.041Z,36.27
2018-09-09T07:50:00.036Z,36.16
2018-09-09T07:51:00.039Z,36.64
2018-09-09T07:52:00.044Z,36.18
2018-09-09T07:53:00.048Z,36.35
2018-09-09T07:54:00.060Z,36.16
2018-09-09T07:55:00.057Z,36.46
2018-09-09T07:56:00.062Z,36.25
2018-09-09T07:57:00.067Z,36.44
2018-09-09T07:58:00.072Z,36.46
2018-09-09T07:59:00.076Z,36.46
2018-09-09T08:00:00.081Z,36.36
2018-09-09T08:01:00.085Z,36.66
2018-09-09T08:02:00.090Z,36.66
2018-09-09T08:03:00.097Z,36.27
2018-09-09T08:04:00.103Z,36.74
2018-09-09T08:05:00.114Z,36.27
2018-09-09T08:06:00.110Z,36.44
2018-09-09T08:07:00.115Z,36.56
2018-09-09T08:08:00.120Z,36.46
2018-09-09T08:09:00.123Z,36.54
2018-09-09T08:10:00.136Z,36.46
2018-09-09T08:11:00.137Z,36.85
2018-09-09T08:12:00.147Z,36.85
2018-09-09T08:13:00.140Z,36.85
2018-09-09T08:14:00.145Z,36.56
2018-09-09T08:15:00.149Z,36.74
2018-09-09T08:16:00.153Z,36.64
2018-09-09T08:17:00.158Z,36.85
2018-09-09T08:18:00.166Z,36.66
2018-09-09T08:19:00.168Z,36.66
2018-09-09T08:20:00.176Z,36.66
2018-09-09T08:21:00.178Z,36.66
2018-09-09T08:22:00.182Z,36.85
2018-09-09T08:23:00.190Z,36.95
2018-09-09T08:24:00.196Z,36.56
2018-09-09T08:25:00.196Z,36.66
2018-09-09T08:26:00.200Z,37.05
2018-09-09T08:27:00.212Z,36.66
2018-09-09T08:28:00.210Z,37.34
2018-09-09T08:29:00.216Z,37.34
2018-09-09T08:30:00.258Z,37.34
2018-09-09T08:31:00.225Z,37.24
2018-09-09T08:32:00.233Z,37.05
2018-09-09T08:33:00.232Z,37.05
2018-09-09T08:34:00.241Z,37.05
2018-09-09T08:35:00.255Z,37.05
2018-09-09T08:36:00.248Z,37.05
2018-09-09T08:37:00.276Z,37.05
2018-09-09T08:38:00.256Z,37.24
2018-09-09T08:39:00.261Z,37.05
2018-09-09T08:40:00.266Z,37.34
2018-09-09T08:41:00.269Z,37.43
2018-09-09T08:42:00.275Z,37.43
2018-09-09T08:43:00.279Z,37.24
2018-09-09T08:44:00.286Z,37.05
2018-09-09T08:45:00.287Z,37.34
2018-09-09T08:46:00.299Z,37.63
2018-09-09T08:47:00.300Z,37.24
2018-09-09T08:48:00.303Z,37.73
2018-09-09T08:49:00.310Z,37.73
2018-09-09T08:50:00.313Z,37.34
2018-09-09T08:51:00.317Z,37.43
2018-09-09T08:52:00.412Z,37.34
2018-09-09T08:53:00.326Z,37.63
2018-09-09T08:54:00.330Z,37.53
2018-09-09T08:55:00.335Z,37.43
2018-09-09T08:56:00.340Z,37.63
2018-09-09T08:57:00.345Z,37.63
2018-09-09T08:58:00.353Z,37.82
2018-09-09T08:59:00.355Z,37.73
2018-09-09T09:00:00.359Z,37.73
2018-09-09T09:01:00.361Z,37.82
2018-09-09T09:02:00.370Z,37.82
2018-09-09T09:03:00.372Z,37.92
2018-09-09T09:04:00.379Z,37.63
2018-09-09T09:05:00.381Z,38.21
2018-09-09T09:06:00.386Z,38.12
2018-09-09T09:07:00.400Z,38.02
2018-09-09T09:08:00.507Z,38.12
2018-09-09T09:09:00.402Z,37.82
2018-09-09T09:10:00.406Z,38.40
2018-09-09T09:11:00.410Z,38.40
2018-09-09T09:12:00.412Z,38.31
2018-09-09T09:13:00.420Z,38.21
2018-09-09T09:14:00.425Z,38.31
2018-09-09T09:15:00.429Z,38.12
2018-09-09T09:16:00.435Z,38.31
2018-09-09T09:17:00.438Z,38.12
2018-09-09T09:18:00.443Z,38.21
2018-09-09T09:19:00.448Z,38.12
2018-09-09T09:20:00.453Z,38.21
2018-09-09T09:21:00.458Z,38.12
2018-09-09T09:22:00.472Z,38.40
2018-09-09T09:23:00.474Z,38.31
2018-09-09T09:24:00.475Z,38.31
2018-09-09T09:25:00.475Z,38.40
2018-09-09T09:26:00.480Z,38.50
2018-09-09T09:27:00.490Z,38.50
2018-09-09T09:28:00.491Z,38.40
2018-09-09T09:29:00.494Z,38.12
2018-09-09T09:30:00.500Z,38.31
2018-09-09T09:31:00.506Z,38.12
2018-09-09T09:32:00.509Z,38.40
2018-09-09T09:33:00.513Z,38.50
2018-09-09T09:34:00.518Z,38.60
2018-09-09T09:35:00.524Z,38.60
2018-09-09T09:36:00.529Z,38.79
2018-09-09T09:37:00.532Z,38.70
2018-09-09T09:38:00.537Z,38.70
2018-09-09T09:39:00.549Z,38.60
2018-09-09T09:40:00.546Z,38.60
2018-09-09T09:41:00.554Z,38.70
2018-09-09T09:42:00.556Z,38.79
2018-09-09T09:43:00.560Z,38.50
2018-09-09T09:44:00.565Z,38.70
2018-09-09T09:45:00.570Z,38.60
2018-09-09T09:46:00.574Z,38.99
2018-09-09T09:47:00.590Z,39.08
2018-09-09T09:48:00.585Z,39.18
2018-09-09T09:49:00.589Z,39.28
2018-09-09T09:50:00.594Z,39.08
2018-09-09T09:51:00.601Z,39.18
2018-09-09T09:52:00.616Z,38.99
2018-09-09T09:53:00.644Z,38.89
2018-09-09T09:54:00.613Z,38.99
2018-09-09T09:55:00.664Z,38.99
2018-09-09T09:56:00.623Z,38.99
2018-09-09T09:57:00.630Z,39.08
2018-09-09T09:58:00.635Z,39.08
2018-09-09T09:59:00.639Z,39.08
2018-09-09T10:00:00.645Z,39.18
2018-09-09T10:01:00.647Z,39.37
2018-09-09T10:02:00.651Z,39.37
2018-09-09T10:03:00.662Z,39.37
2018-09-09T10:04:00.662Z,39.37
2018-09-09T10:05:00.665Z,39.47
2018-09-09T10:06:00.669Z,39.37
2018-09-09T10:07:00.675Z,39.28
2018-09-09T10:08:00.679Z,39.86
2018-09-09T10:09:00.703Z,39.86
2018-09-09T10:10:00.687Z,39.67
2018-09-09T10:11:00.694Z,39.57
2018-09-09T10:12:00.699Z,39.67
2018-09-09T10:13:00.704Z,39.95
2018-09-09T10:14:00.708Z,39.67
2018-09-09T10:15:00.743Z,39.67
2018-09-09T10:16:00.719Z,39.47
2018-09-09T10:17:00.722Z,39.28
2018-09-09T10:18:00.729Z,39.37
2018-09-09T10:19:00.731Z,39.28
2018-09-09T10:20:00.737Z,39.08
2018-09-09T10:21:00.741Z,39.08
2018-09-09T10:22:00.747Z,39.37
2018-09-09T10:23:00.751Z,39.18
2018-09-09T10:24:00.756Z,39.08
2018-09-09T10:25:00.763Z,39.28
2018-09-09T10:26:00.771Z,38.89
2018-09-09T10:27:00.771Z,38.99
2018-09-09T10:28:00.776Z,38.89
2018-09-09T10:29:00.779Z,38.79
2018-09-09T10:30:00.851Z,38.99
2018-09-09T10:31:00.790Z,38.89
2018-09-09T10:32:00.794Z,38.89
2018-09-09T10:33:00.799Z,38.99
2018-09-09T10:34:00.837Z,39.18
2018-09-09T10:35:00.807Z,38.99
2018-09-09T10:36:00.813Z,39.18
2018-09-09T10:37:00.821Z,38.99
2018-09-09T10:38:00.823Z,38.99
2018-09-09T10:39:00.828Z,38.99
2018-09-09T10:40:00.832Z,38.99
2018-09-09T10:41:00.862Z,39.08
2018-09-09T10:42:00.842Z,38.99
2018-09-09T10:43:00.847Z,39.08
2018-09-09T10:44:00.851Z,38.89
2018-09-09T10:45:00.855Z,38.99
2018-09-09T10:46:00.868Z,39.08
2018-09-09T10:47:00.935Z,38.89
2018-09-09T10:48:00.871Z,39.18
2018-09-09T10:49:00.874Z,38.79
2018-09-09T10:50:00.879Z,39.18
2018-09-09T10:51:00.884Z,39.18
2018-09-09T10:52:00.896Z,39.08
2018-09-09T10:53:00.958Z,39.28
2018-09-09T10:54:00.899Z,39.28
2018-09-09T10:55:00.904Z,39.28
2018-09-09T10:56:00.908Z,39.28
2018-09-09T10:57:00.919Z,38.89
2018-09-09T10:58:00.917Z,39.08
2018-09-09T10:59:00.933Z,38.79
2018-09-09T11:00:00.928Z,38.89
2018-09-09T11:01:00.931Z,38.70
2018-09-09T11:02:00.938Z,38.70
2018-09-09T11:03:00.948Z,38.70
2018-09-09T11:04:00.947Z,38.79
2018-09-09T11:05:00.952Z,38.79
2018-09-09T11:06:00.955Z,38.70
2018-09-09T11:07:01.014Z,38.70
2018-09-09T11:08:00.976Z,38.50
2018-09-09T11:09:00.970Z,38.60
2018-09-09T11:10:00.974Z,38.50
2018-09-09T11:11:00.979Z,38.40
2018-09-09T11:12:00.985Z,38.40
2018-09-09T11:13:01.124Z,38.70
2018-09-09T11:14:00.994Z,38.60
2018-09-09T11:15:00.997Z,38.40
2018-09-09T11:16:01.005Z,38.31
2018-09-09T11:17:01.008Z,38.31
2018-09-09T11:18:01.023Z,38.40
2018-09-09T11:19:01.062Z,38.31
2018-09-09T11:20:01.031Z,38.40
2018-09-09T11:21:01.032Z,38.40
2018-09-09T11:22:01.032Z,38.40
2018-09-09T11:23:01.038Z,38.12
2018-09-09T11:24:01.068Z,38.02
2018-09-09T11:25:01.047Z,38.12
2018-09-09T11:26:01.053Z,38.12
2018-09-09T11:27:01.057Z,38.31
2018-09-09T11:28:01.066Z,38.21
2018-09-09T11:29:01.065Z,38.12
2018-09-09T11:30:01.180Z,38.12
2018-09-09T11:31:01.077Z,38.21
2018-09-09T11:32:01.086Z,38.21
2018-09-09T11:33:01.088Z,38.12
2018-09-09T11:34:01.093Z,38.12
2018-09-09T11:35:01.094Z,38.31
2018-09-09T11:36:01.105Z,38.40
2018-09-09T11:37:01.106Z,38.40
2018-09-09T11:38:01.111Z,37.73
2018-09-09T11:39:01.113Z,37.84
2018-09-09T11:40:01.118Z,37.73
2018-09-09T11:41:01.122Z,38.12
2018-09-09T11:42:01.128Z,37.73
2018-09-09T11:43:01.136Z,37.82
2018-09-09T11:44:01.145Z,37.92
2018-09-09T11:45:01.141Z,37.82
2018-09-09T11:46:01.146Z,38.12
2018-09-09T11:47:01.153Z,37.73
2018-09-09T11:48:01.155Z,37.92
2018-09-09T11:49:01.161Z,38.12
2018-09-09T11:50:01.166Z,37.92
2018-09-09T11:51:01.172Z,37.73
2018-09-09T11:52:01.176Z,38.31
2018-09-09T11:53:01.189Z,38.21
2018-09-09T11:54:01.187Z,37.82
2018-09-09T11:55:01.191Z,38.40
2018-09-09T11:56:01.196Z,38.21
2018-09-09T11:57:01.204Z,38.60
2018-09-09T11:58:01.204Z,38.40
2018-09-09T11:59:01.209Z,38.40
2018-09-09T12:00:01.217Z,38.50
2018-09-09T12:01:01.221Z,38.40
2018-09-09T12:02:01.290Z,38.40
2018-09-09T12:03:01.229Z,38.40
2018-09-09T12:04:01.240Z,38.31
2018-09-09T12:05:01.241Z,38.60
2018-09-09T12:06:01.242Z,38.40
2018-09-09T12:07:01.247Z,38.60
2018-09-09T12:08:01.252Z,38.21
2018-09-09T12:09:01.256Z,37.92
2018-09-09T12:10:01.264Z,37.92
2018-09-09T12:11:01.265Z,37.82
2018-09-09T12:12:01.275Z,38.12
2018-09-09T12:13:01.275Z,38.02
2018-09-09T12:14:01.285Z,38.12
2018-09-09T12:15:01.285Z,38.02
2018-09-09T12:16:01.300Z,38.21
2018-09-09T12:17:01.295Z,38.12
2018-09-09T12:18:01.299Z,37.73
2018-09-09T12:19:01.305Z,37.63
2018-09-09T12:20:01.311Z,37.63
2018-09-09T12:21:01.312Z,37.53
2018-09-09T12:22:01.318Z,37.63
2018-09-09T12:23:01.323Z,37.53
2018-09-09T12:24:01.327Z,37.63
2018-09-09T12:25:01.332Z,37.43
2018-09-09T12:26:01.342Z,37.43
2018-09-09T12:27:01.345Z,37.73
2018-09-09T12:28:01.348Z,37.05
2018-09-09T12:29:01.367Z,37.53
2018-09-09T12:30:01.359Z,37.43
2018-09-09T12:31:01.361Z,37.43
2018-09-09T12:32:01.367Z,37.15
2018-09-09T12:33:01.370Z,37.43
2018-09-09T12:34:01.375Z,37.43
2018-09-09T12:35:01.382Z,37.05
2018-09-09T12:36:01.405Z,37.05
2018-09-09T12:37:01.398Z,37.34
2018-09-09T12:38:01.401Z,37.24
2018-09-09T12:39:01.402Z,37.15
2018-09-09T12:40:01.404Z,37.24
2018-09-09T12:41:01.406Z,37.05
2018-09-09T12:42:01.413Z,36.95
2018-09-09T12:43:01.420Z,36.56
2018-09-09T12:44:01.424Z,36.76
2018-09-09T12:45:01.427Z,36.76
2018-09-09T12:46:01.440Z,36.66
2018-09-09T12:47:01.445Z,36.56
2018-09-09T12:48:01.444Z,36.76
2018-09-09T12:49:01.449Z,36.66
2018-09-09T12:50:01.452Z,36.76
2018-09-09T12:51:01.457Z,36.46
2018-09-09T12:52:01.476Z,36.56
2018-09-09T12:53:01.475Z,36.85